createdAt,value
2022-10-10T00:01:38.690Z,101463.66
2022-10-10T00:04:08.922Z,101469.41
2022-10-10T00:06:37.527Z,101460.25
2022-10-10T00:09:07.132Z,101466.69
2022-10-10T00:11:36.952Z,101461.34
2022-10-10T00:14:06.354Z,101462.78
2022-10-10T00:16:34.837Z,101467.25
2022-10-10T00:19:03.881Z,101460.63
2022-10-10T00:21:34.154Z,101470.81
2022-10-10T00:24:03.043Z,101469.53
2022-10-10T00:26:32.040Z,101467.72
2022-10-10T00:29:00.946Z,101467.28
2022-10-10T00:31:29.238Z,101462.94
2022-10-10T00:33:57.882Z,101458.09
2022-10-10T00:36:26.590Z,101451.69
2022-10-10T00:38:56.604Z,101457.53
2022-10-10T00:41:26.988Z,101456.94
2022-10-10T00:44:10.028Z,101448.66
2022-10-10T00:46:39.411Z,101444.53
2022-10-10T00:49:10.838Z,101451.53
2022-10-10T00:51:39.650Z,101451.94
2022-10-10T00:54:11.675Z,101445.91
2022-10-10T00:56:42.911Z,101447.41
2022-10-10T00:59:12.708Z,101445.00
2022-10-10T01:01:41.897Z,101431.81
2022-10-10T01:04:34.839Z,101435.28
2022-10-10T01:07:06.473Z,101440.38
2022-10-10T01:09:37.608Z,101448.31
2022-10-10T01:12:17.105Z,101455.84
2022-10-10T01:14:49.395Z,101457.34
2022-10-10T01:17:22.772Z,101453.09
2022-10-10T01:20:44.603Z,101460.88
2022-10-10T01:23:35.797Z,101464.28
2022-10-10T01:26:19.676Z,101458.34
2022-10-10T01:28:52.764Z,101458.81
2022-10-10T01:31:24.503Z,101465.50
2022-10-10T01:34:02.226Z,101462.88
2022-10-10T01:36:35.632Z,101463.13
2022-10-10T01:39:08.687Z,101462.44
2022-10-10T01:41:41.079Z,101452.81
2022-10-10T01:44:11.316Z,101448.78
2022-10-10T01:46:39.788Z,101449.19
2022-10-10T01:49:08.470Z,101451.88
2022-10-10T01:51:49.776Z,101450.69
2022-10-10T01:54:28.370Z,101450.78
2022-10-10T01:57:04.941Z,101450.00
2022-10-10T01:59:42.123Z,101450.09
2022-10-10T02:02:16.141Z,101445.00
2022-10-10T02:04:50.315Z,101451.94
2022-10-10T02:07:23.461Z,101452.16
2022-10-10T02:09:53.765Z,101450.91
2022-10-10T02:12:22.247Z,101458.00
2022-10-10T02:14:53.439Z,101451.50
2022-10-10T02:17:22.632Z,101446.75
2022-10-10T02:19:54.336Z,101457.13
2022-10-10T02:22:23.849Z,101445.97
2022-10-10T02:24:53.779Z,101449.38
2022-10-10T02:27:27.017Z,101448.72
2022-10-10T02:29:58.094Z,101438.34
2022-10-10T02:32:30.064Z,101438.34
2022-10-10T02:35:09.438Z,101423.31
2022-10-10T02:37:38.920Z,101427.63
2022-10-10T02:40:10.338Z,101420.69
2022-10-10T02:42:39.875Z,101420.69
2022-10-10T02:45:10.942Z,101424.22
2022-10-10T02:47:39.646Z,101418.06
2022-10-10T02:50:09.214Z,101414.38
2022-10-10T02:52:37.500Z,101415.38
2022-10-10T02:55:07.272Z,101411.75
2022-10-10T02:57:35.952Z,101418.59
2022-10-10T03:00:05.125Z,101418.41
2022-10-10T03:02:35.193Z,101409.16
2022-10-10T03:05:05.723Z,101416.16
2022-10-10T03:07:34.474Z,101416.41
2022-10-10T03:10:03.193Z,101425.03
2022-10-10T03:12:31.877Z,101419.03
2022-10-10T03:15:00.491Z,101425.34
2022-10-10T03:17:29.109Z,101422.94
2022-10-10T03:19:59.168Z,101429.03
2022-10-10T03:22:27.518Z,101423.63
2022-10-10T03:24:56.187Z,101422.88
2022-10-10T03:27:24.931Z,101432.56
2022-10-10T03:29:53.581Z,101430.72
2022-10-10T03:32:22.363Z,101430.56
2022-10-10T03:34:50.688Z,101425.41
2022-10-10T03:37:20.900Z,101432.56
2022-10-10T03:39:49.455Z,101433.50
2022-10-10T03:42:18.159Z,101430.47
2022-10-10T03:44:46.887Z,101427.91
2022-10-10T03:47:15.697Z,101413.91
2022-10-10T03:49:43.956Z,101424.53
2022-10-10T03:52:12.785Z,101424.75
2022-10-10T03:54:42.866Z,101419.44
2022-10-10T03:57:11.491Z,101420.34
2022-10-10T03:59:40.173Z,101418.75
2022-10-10T04:02:08.811Z,101424.13
2022-10-10T04:04:37.237Z,101421.75
2022-10-10T04:07:05.878Z,101420.81
2022-10-10T04:09:34.572Z,101415.72
2022-10-10T04:12:05.379Z,101417.44
2022-10-10T04:14:34.133Z,101412.25
2022-10-10T04:17:03.511Z,101412.38
2022-10-10T04:19:31.816Z,101416.78
2022-10-10T04:22:00.424Z,101414.03
2022-10-10T04:24:29.243Z,101415.00
2022-10-10T04:26:58.223Z,101412.75
2022-10-10T04:29:28.728Z,101406.19
2022-10-10T04:31:57.161Z,101419.34
2022-10-10T04:34:28.454Z,101410.31
2022-10-10T04:36:57.255Z,101405.91
2022-10-10T04:39:26.234Z,101407.78
2022-10-10T04:41:54.937Z,101409.53
2022-10-10T04:44:23.935Z,101402.38
2022-10-10T04:46:53.940Z,101413.94
2022-10-10T04:49:23.293Z,101400.47
2022-10-10T04:51:52.028Z,101415.16
2022-10-10T04:54:20.742Z,101419.41
2022-10-10T04:56:49.557Z,101414.19
2022-10-10T04:59:18.356Z,101411.97
2022-10-10T05:01:46.697Z,101412.94
2022-10-10T05:04:16.947Z,101419.03
2022-10-10T05:06:45.926Z,101417.72
2022-10-10T05:09:14.704Z,101413.06
2022-10-10T05:11:43.470Z,101425.03
2022-10-10T05:14:12.148Z,101427.66
2022-10-10T05:16:40.481Z,101422.94
2022-10-10T05:19:09.281Z,101423.53
2022-10-10T05:21:39.490Z,101417.31
2022-10-10T05:24:08.256Z,101402.56
2022-10-10T05:26:42.234Z,101404.03
2022-10-10T05:29:11.837Z,101406.91
2022-10-10T05:31:40.183Z,101400.25
2022-10-10T05:34:08.810Z,101395.53
2022-10-10T05:36:37.632Z,101392.34
2022-10-10T05:39:07.691Z,101405.91
2022-10-10T05:41:36.709Z,101404.94
2022-10-10T05:44:05.489Z,101413.19
2022-10-10T05:46:33.854Z,101415.13
2022-10-10T05:49:02.759Z,101404.66
2022-10-10T05:51:31.570Z,101409.06
2022-10-10T05:54:00.319Z,101396.53
2022-10-10T05:56:31.739Z,101391.53
2022-10-10T05:59:00.466Z,101395.72
2022-10-10T06:01:28.908Z,101397.41
2022-10-10T06:03:57.687Z,101404.66
2022-10-10T06:06:27.407Z,101397.28
2022-10-10T06:08:56.345Z,101393.59
2022-10-10T06:11:26.123Z,101389.41
2022-10-10T06:13:57.190Z,101386.56
2022-10-10T06:16:27.079Z,101399.84
2022-10-10T06:18:57.009Z,101394.59
2022-10-10T06:21:26.214Z,101395.22
2022-10-10T06:23:54.975Z,101390.50
2022-10-10T06:26:24.019Z,101395.78
2022-10-10T06:28:52.474Z,101378.56
2022-10-10T06:31:22.773Z,101390.94
2022-10-10T06:33:53.328Z,101393.78
2022-10-10T06:36:21.766Z,101385.09
2022-10-10T06:38:50.602Z,101380.00
2022-10-10T06:41:19.248Z,101358.28
2022-10-10T06:43:49.209Z,101368.88
2022-10-10T06:46:18.020Z,101364.59
2022-10-10T06:48:48.118Z,101357.31
2022-10-10T06:51:17.814Z,101360.28
2022-10-10T06:53:47.025Z,101351.69
2022-10-10T06:56:26.368Z,101356.59
2022-10-10T06:58:56.353Z,101364.63
2022-10-10T07:01:26.422Z,101359.00
2022-10-10T07:03:56.451Z,101365.03
2022-10-10T07:06:25.351Z,101371.69
2022-10-10T07:08:54.068Z,101369.69
2022-10-10T07:11:22.859Z,101363.34
2022-10-10T07:13:53.759Z,101364.28
2022-10-10T07:16:23.269Z,101355.13
2022-10-10T07:18:52.090Z,101360.84
2022-10-10T07:21:22.128Z,101358.59
2022-10-10T07:23:50.812Z,101357.75
2022-10-10T07:26:22.415Z,101366.09
2022-10-10T07:28:51.100Z,101356.81
2022-10-10T07:31:19.733Z,101349.88
2022-10-10T07:33:50.972Z,101355.66
2022-10-10T07:36:21.555Z,101360.16
2022-10-10T07:38:52.171Z,101371.84
2022-10-10T07:41:21.793Z,101347.06
2022-10-10T07:43:51.325Z,101338.03
2022-10-10T07:46:21.321Z,101335.47
2022-10-10T07:48:50.201Z,101337.13
2022-10-10T07:51:21.179Z,101335.47
2022-10-10T07:53:49.900Z,101337.72
2022-10-10T07:56:18.660Z,101335.53
2022-10-10T07:58:46.966Z,101322.56
2022-10-10T08:01:15.646Z,101325.03
2022-10-10T08:03:44.339Z,101329.06
2022-10-10T08:06:14.376Z,101351.47
2022-10-10T08:08:51.215Z,101328.63
2022-10-10T08:11:22.431Z,101331.91
2022-10-10T08:13:51.320Z,101333.44
2022-10-10T08:16:20.516Z,101331.84
2022-10-10T08:18:49.350Z,101322.81
2022-10-10T08:21:18.814Z,101325.00
2022-10-10T08:23:48.985Z,101317.59
2022-10-10T08:26:19.981Z,101318.97
2022-10-10T08:28:48.915Z,101308.94
2022-10-10T08:31:20.393Z,101317.88
2022-10-10T08:33:50.260Z,101310.06
2022-10-10T08:36:20.761Z,101316.19
2022-10-10T08:38:52.739Z,101305.16
2022-10-10T08:41:28.549Z,101293.97
2022-10-10T08:43:59.183Z,101299.59
2022-10-10T08:46:34.899Z,101290.59
2022-10-10T08:49:17.253Z,101280.66
2022-10-10T08:51:50.952Z,101286.72
2022-10-10T08:54:23.419Z,101287.13
2022-10-10T08:56:52.217Z,101274.25
2022-10-10T08:59:23.097Z,101271.00
2022-10-10T09:02:18.213Z,101273.59
2022-10-10T09:04:42.537Z,101262.25
2022-10-10T09:07:22.578Z,101256.19
2022-10-10T09:09:58.521Z,101271.69
2022-10-10T09:12:32.883Z,101266.31
2022-10-10T09:15:09.966Z,101261.53
2022-10-10T09:17:40.941Z,101257.53
2022-10-10T09:20:19.762Z,101251.34
2022-10-10T09:22:52.987Z,101258.94
2022-10-10T09:25:25.681Z,101253.28
2022-10-10T09:28:00.410Z,101250.28
2022-10-10T09:30:31.377Z,101258.25
2022-10-10T09:33:03.226Z,101262.28
2022-10-10T09:35:35.978Z,101251.63
2022-10-10T09:38:17.927Z,101238.34
2022-10-10T09:40:51.309Z,101236.94
2022-10-10T09:43:21.801Z,101230.81
2022-10-10T09:45:53.597Z,101232.66
2022-10-10T09:48:24.191Z,101225.84
2022-10-10T09:50:52.904Z,101233.53
2022-10-10T09:53:21.657Z,101235.22
2022-10-10T09:55:53.752Z,101248.81
2022-10-10T09:58:28.153Z,101241.75
2022-10-10T10:00:57.537Z,101228.19
2022-10-10T10:03:26.601Z,101234.41
2022-10-10T10:05:57.423Z,101247.19
2022-10-10T10:08:28.475Z,101229.13
2022-10-10T10:11:02.002Z,101222.38
2022-10-10T10:13:33.156Z,101232.72
2022-10-10T10:16:05.071Z,101222.31
2022-10-10T10:18:40.283Z,101213.47
2022-10-10T10:21:15.629Z,101209.63
2022-10-10T10:23:49.247Z,101206.03
2022-10-10T10:26:22.736Z,101211.63
2022-10-10T10:28:52.657Z,101212.66
2022-10-10T10:31:26.812Z,101205.97
2022-10-10T10:34:03.645Z,101198.78
2022-10-10T10:36:39.291Z,101212.16
2022-10-10T10:39:19.313Z,101203.69
2022-10-10T10:41:56.096Z,101182.44
2022-10-10T10:44:34.996Z,101172.28
2022-10-10T10:47:11.276Z,101201.91
2022-10-10T10:49:49.706Z,101180.72
2022-10-10T10:52:37.231Z,101167.25
2022-10-10T10:55:19.397Z,101175.94
2022-10-10T10:58:57.956Z,101170.72
2022-10-10T11:01:23.568Z,101154.88
2022-10-10T11:05:19.086Z,101153.22
2022-10-10T11:07:17.812Z,101168.75
2022-10-10T11:09:53.965Z,101159.69
2022-10-10T11:12:32.758Z,101152.53
2022-10-10T11:15:05.253Z,101147.09
2022-10-10T11:17:37.966Z,101154.38
2022-10-10T11:20:13.699Z,101151.69
2022-10-10T11:22:46.297Z,101147.56
2022-10-10T11:25:20.459Z,101140.53
2022-10-10T11:27:52.542Z,101142.66
2022-10-10T11:30:25.049Z,101140.03
2022-10-10T11:32:56.650Z,101131.56
2022-10-10T11:35:36.408Z,101122.72
2022-10-10T11:38:11.886Z,101118.41
2022-10-10T11:40:59.146Z,101133.72
2022-10-10T11:43:35.073Z,101112.16
2022-10-10T11:46:13.047Z,101114.50
2022-10-10T11:48:47.132Z,101110.38
2022-10-10T11:51:23.045Z,101109.69
2022-10-10T11:53:52.548Z,101110.53
2022-10-10T11:56:26.896Z,101097.00
2022-10-10T11:58:58.845Z,101083.09
2022-10-10T12:01:31.053Z,101080.03
2022-10-10T12:03:59.727Z,101081.94
2022-10-10T12:06:33.535Z,101063.00
2022-10-10T12:09:05.244Z,101066.34
2022-10-10T12:11:38.004Z,101060.53
2022-10-10T12:14:10.180Z,101064.75
2022-10-10T12:16:40.062Z,101057.19
2022-10-10T12:19:09.059Z,101062.69
2022-10-10T12:21:58.052Z,101039.97
2022-10-10T12:24:27.727Z,101041.41
2022-10-10T12:27:29.585Z,101037.56
2022-10-10T12:30:26.027Z,101038.53
2022-10-10T12:32:56.607Z,101045.50
2022-10-10T12:35:34.334Z,101023.69
2022-10-10T12:38:24.253Z,101016.72
2022-10-10T12:41:14.400Z,101013.56
2022-10-10T12:43:46.257Z,101003.63
2022-10-10T12:46:31.814Z,101004.56
2022-10-10T12:49:17.998Z,101000.72
2022-10-10T12:52:01.613Z,101004.91
2022-10-10T12:54:33.332Z,100992.03
2022-10-10T12:57:14.964Z,100992.28
2022-10-10T12:59:44.129Z,100997.41
2022-10-10T13:02:19.604Z,100981.50
2022-10-10T13:04:50.428Z,100978.94
2022-10-10T13:07:21.043Z,100973.63
2022-10-10T13:09:51.212Z,100967.53
2022-10-10T13:12:23.276Z,100960.19
2022-10-10T13:14:52.110Z,100962.34
2022-10-10T13:17:26.059Z,100962.00
2022-10-10T13:20:01.396Z,100966.50
2022-10-10T13:22:31.623Z,100957.03
2022-10-10T13:25:05.193Z,100952.50
2022-10-10T13:27:35.460Z,100931.97
2022-10-10T13:30:04.034Z,100930.75
2022-10-10T13:32:34.245Z,100937.53
2022-10-10T13:35:05.848Z,100926.28
2022-10-10T13:37:36.068Z,100920.84
2022-10-10T13:40:05.297Z,100926.63
2022-10-10T13:42:35.925Z,100922.06
2022-10-10T13:45:30.922Z,100923.44
2022-10-10T13:48:19.206Z,100908.00
2022-10-10T13:51:04.617Z,100906.63
2022-10-10T13:53:35.786Z,100907.09
2022-10-10T13:56:08.109Z,100906.47
2022-10-10T13:58:42.525Z,100914.34
2022-10-10T14:01:33.422Z,100895.63
2022-10-10T14:04:06.781Z,100905.19
2022-10-10T14:06:37.305Z,100893.25
2022-10-10T14:09:10.962Z,100894.41
2022-10-10T14:11:42.204Z,100880.88
2022-10-10T14:14:18.671Z,100880.63
2022-10-10T14:16:47.152Z,100870.88
2022-10-10T14:19:18.543Z,100864.66
2022-10-10T14:21:48.680Z,100866.38
2022-10-10T14:24:17.156Z,100867.66
2022-10-10T14:26:45.978Z,100861.84
2022-10-10T14:29:15.874Z,100863.06
2022-10-10T14:31:45.547Z,100866.19
2022-10-10T14:34:15.248Z,100861.28
2022-10-10T14:36:48.853Z,100854.09
2022-10-10T14:39:19.084Z,100868.59
2022-10-10T14:41:47.885Z,100861.22
2022-10-10T14:44:16.781Z,100852.81
2022-10-10T14:46:45.299Z,100862.94
2022-10-10T14:49:19.757Z,100863.50
2022-10-10T14:51:50.054Z,100861.22
2022-10-10T14:54:18.782Z,100853.38
2022-10-10T14:57:07.644Z,100852.91
2022-10-10T14:59:48.477Z,100855.00
2022-10-10T15:02:20.654Z,100840.53
2022-10-10T15:04:49.968Z,100840.69
2022-10-10T15:07:20.845Z,100839.25
2022-10-10T15:10:31.624Z,100837.56
2022-10-10T15:12:41.593Z,100833.97
2022-10-10T15:15:11.992Z,100822.94
2022-10-10T15:17:42.245Z,100822.56
2022-10-10T15:20:12.823Z,100827.31
2022-10-10T15:22:43.023Z,100825.13
2022-10-10T15:25:11.730Z,100829.31
2022-10-10T15:27:40.615Z,100821.53
2022-10-10T15:30:12.314Z,100827.94
2022-10-10T15:32:41.701Z,100833.66
2022-10-10T15:35:13.931Z,100826.56
2022-10-10T15:37:44.251Z,100824.00
2022-10-10T15:40:14.453Z,100827.94
2022-10-10T15:42:43.295Z,100825.66
2022-10-10T15:45:12.207Z,100825.13
2022-10-10T15:47:46.441Z,100820.91
2022-10-10T15:50:15.703Z,100827.59
2022-10-10T15:52:45.902Z,100824.41
2022-10-10T15:55:14.828Z,100822.97
2022-10-10T15:57:43.601Z,100826.66
2022-10-10T16:00:13.441Z,100823.91
2022-10-10T16:02:42.166Z,100824.91
2022-10-10T16:05:11.438Z,100830.13
2022-10-10T16:07:48.022Z,100826.66
2022-10-10T16:10:18.463Z,100832.44
2022-10-10T16:12:47.157Z,100827.16
2022-10-10T16:15:15.968Z,100830.25
2022-10-10T16:17:45.232Z,100833.31
2022-10-10T16:20:14.013Z,100838.75
2022-10-10T16:22:42.400Z,100831.66
2022-10-10T16:25:26.810Z,100832.22
2022-10-10T16:27:56.930Z,100829.41
2022-10-10T16:30:25.700Z,100824.41
2022-10-10T16:32:54.396Z,100816.03
2022-10-10T16:35:23.202Z,100813.09
2022-10-10T16:37:51.512Z,100833.50
2022-10-10T16:40:20.343Z,100831.94
2022-10-10T16:42:49.014Z,100825.22
2022-10-10T16:45:19.318Z,100818.94
2022-10-10T16:47:48.019Z,100826.47
2022-10-10T16:50:17.016Z,100821.06
2022-10-10T16:52:46.005Z,100826.31
2022-10-10T16:55:14.792Z,100823.56
2022-10-10T16:57:43.488Z,100818.53
2022-10-10T17:00:12.799Z,100812.75
2022-10-10T17:02:43.295Z,100810.53
2022-10-10T17:05:11.876Z,100807.19
2022-10-10T17:07:40.220Z,100808.44
2022-10-10T17:10:09.953Z,100800.47
2022-10-10T17:12:38.771Z,100791.13
2022-10-10T17:15:08.810Z,100782.47
2022-10-10T17:17:37.982Z,100784.44
2022-10-10T17:20:08.912Z,100787.06
2022-10-10T17:22:38.155Z,100781.22
2022-10-10T17:25:08.023Z,100786.25
2022-10-10T17:27:37.730Z,100782.47
2022-10-10T17:30:09.850Z,100772.16
2022-10-10T17:32:39.054Z,100770.03
2022-10-10T17:35:10.031Z,100768.19
2022-10-10T17:37:38.704Z,100767.31
2022-10-10T17:40:08.429Z,100756.72
2022-10-10T17:42:39.767Z,100767.03
2022-10-10T17:45:09.851Z,100765.63
2022-10-10T17:47:41.252Z,100761.44
2022-10-10T17:50:13.569Z,100758.81
2022-10-10T17:52:42.305Z,100764.22
2022-10-10T17:55:11.121Z,100768.41
2022-10-10T17:57:39.952Z,100777.00
2022-10-10T18:00:09.925Z,100767.41
2022-10-10T18:02:38.637Z,100767.81
2022-10-10T18:05:07.778Z,100763.91
2022-10-10T18:07:37.688Z,100761.50
2022-10-10T18:10:07.081Z,100774.16
2022-10-10T18:12:35.810Z,100764.69
2022-10-10T18:15:05.395Z,100771.88
2022-10-10T18:17:34.228Z,100771.16
2022-10-10T18:20:03.174Z,100767.94
2022-10-10T18:22:31.539Z,100758.19
2022-10-10T18:25:01.707Z,100759.69
2022-10-10T18:27:30.362Z,100758.94
2022-10-10T18:29:59.167Z,100751.13
2022-10-10T18:32:27.909Z,100753.03
2022-10-10T18:34:56.766Z,100751.63
2022-10-10T18:37:25.479Z,100749.53
2022-10-10T18:39:54.151Z,100742.56
2022-10-10T18:42:24.230Z,100739.00
2022-10-10T18:44:52.902Z,100739.66
2022-10-10T18:47:21.749Z,100744.25
2022-10-10T18:49:50.065Z,100742.16
2022-10-10T18:52:18.749Z,100739.91
2022-10-10T18:54:47.862Z,100735.44
2022-10-10T18:57:16.695Z,100738.75
2022-10-10T18:59:46.816Z,100737.78
2022-10-10T19:02:15.436Z,100732.50
2022-10-10T19:04:45.108Z,100730.81
2022-10-10T19:07:13.865Z,100722.81
2022-10-10T19:09:42.619Z,100723.53
2022-10-10T19:12:11.312Z,100715.97
2022-10-10T19:14:40.229Z,100720.78
2022-10-10T19:17:10.819Z,100721.47
2022-10-10T19:19:39.435Z,100717.81
2022-10-10T19:22:08.180Z,100722.59
2022-10-10T19:24:36.865Z,100721.16
2022-10-10T19:27:05.666Z,100719.72
2022-10-10T19:29:34.688Z,100705.31
2022-10-10T19:32:03.381Z,100705.31
2022-10-10T19:34:33.354Z,100704.72
2022-10-10T19:37:02.004Z,100700.53
2022-10-10T19:39:30.833Z,100695.75
2022-10-10T19:41:59.614Z,100693.81
2022-10-10T19:44:28.346Z,100691.78
2022-10-10T19:46:57.087Z,100696.22
2022-10-10T19:49:25.403Z,100700.78
2022-10-10T19:51:55.630Z,100693.09
2022-10-10T19:54:24.304Z,100692.53
2022-10-10T19:56:53.016Z,100700.09
2022-10-10T19:59:21.821Z,100698.19
2022-10-10T20:01:50.317Z,100691.50
2022-10-10T20:04:19.109Z,100692.91
2022-10-10T20:06:48.574Z,100682.88
2022-10-10T20:09:18.782Z,100689.09
2022-10-10T20:11:47.626Z,100680.72
2022-10-10T20:14:16.311Z,100678.19
2022-10-10T20:16:44.790Z,100682.66
2022-10-10T20:19:13.684Z,100684.09
2022-10-10T20:21:42.957Z,100677.00
2022-10-10T20:24:11.942Z,100678.59
2022-10-10T20:26:42.099Z,100668.66
2022-10-10T20:29:11.049Z,100667.56
2022-10-10T20:31:39.486Z,100669.63
2022-10-10T20:34:08.527Z,100661.09
2022-10-10T20:36:39.256Z,100668.28
2022-10-10T20:39:09.872Z,100666.75
2022-10-10T20:41:39.090Z,100665.19
2022-10-10T20:44:12.486Z,100666.75
2022-10-10T20:46:42.193Z,100663.00
2022-10-10T20:49:14.616Z,100657.50
2022-10-10T20:51:48.384Z,100660.75
2022-10-10T20:54:18.234Z,100663.50
2022-10-10T20:56:46.902Z,100660.44
2022-10-10T20:59:18.873Z,100657.19
2022-10-10T21:01:47.470Z,100652.88
2022-10-10T21:04:16.245Z,100661.63
2022-10-10T21:06:45.077Z,100648.53
2022-10-10T21:09:15.686Z,100648.53
2022-10-10T21:11:48.658Z,100652.03
2022-10-10T21:14:20.951Z,100648.22
2022-10-10T21:16:50.832Z,100649.66
2022-10-10T21:19:19.961Z,100646.41
2022-10-10T21:21:48.858Z,100650.97
2022-10-10T21:24:17.742Z,100640.78
2022-10-10T21:26:49.179Z,100641.00
2022-10-10T21:29:18.224Z,100633.56
2022-10-10T21:31:47.918Z,100636.91
2022-10-10T21:34:18.955Z,100629.84
2022-10-10T21:36:48.396Z,100632.63
2022-10-10T21:39:17.134Z,100627.69
2022-10-10T21:41:45.881Z,100628.31
2022-10-10T21:44:15.964Z,100625.19
2022-10-10T21:46:44.415Z,100627.69
2022-10-10T21:49:14.513Z,100642.56
2022-10-10T21:51:45.720Z,100631.66
2022-10-10T21:54:14.718Z,100622.41
2022-10-10T21:56:43.643Z,100623.84
2022-10-10T21:59:12.761Z,100626.81
2022-10-10T22:01:41.116Z,100624.16
2022-10-10T22:04:10.937Z,100618.56
2022-10-10T22:06:40.997Z,100607.25
2022-10-10T22:09:09.689Z,100613.59
2022-10-10T22:11:38.435Z,100606.53
2022-10-10T22:14:07.232Z,100622.94
2022-10-10T22:16:36.248Z,100606.41
2022-10-10T22:19:05.126Z,100601.03
2022-10-10T22:21:35.141Z,100604.06
2022-10-10T22:24:07.401Z,100599.16
2022-10-10T22:26:36.586Z,100596.75
2022-10-10T22:29:05.644Z,100600.09
2022-10-10T22:31:37.554Z,100603.34
2022-10-10T22:34:06.907Z,100603.13
2022-10-10T22:36:36.210Z,100594.28
2022-10-10T22:39:07.391Z,100594.66
2022-10-10T22:41:36.175Z,100591.63
2022-10-10T22:44:04.983Z,100591.63
2022-10-10T22:46:33.515Z,100581.81
2022-10-10T22:49:02.147Z,100580.50
2022-10-10T22:51:31.119Z,100573.91
2022-10-10T22:53:59.997Z,100577.72
2022-10-10T22:56:30.511Z,100574.59
2022-10-10T22:58:58.915Z,100568.88
2022-10-10T23:01:27.728Z,100566.13
2022-10-10T23:03:59.909Z,100570.06
2022-10-10T23:06:29.248Z,100563.75
2022-10-10T23:08:58.286Z,100565.34
2022-10-10T23:11:26.923Z,100568.22
2022-10-10T23:13:56.705Z,100563.53
2022-10-10T23:16:25.315Z,100568.47
2022-10-10T23:18:54.104Z,100564.38
2022-10-10T23:21:22.850Z,100564.00
2022-10-10T23:23:52.097Z,100564.72
2022-10-10T23:26:20.881Z,100559.81
2022-10-10T23:28:50.718Z,100554.06
2022-10-10T23:31:20.867Z,100551.44
2022-10-10T23:33:49.624Z,100550.13
2022-10-10T23:36:18.321Z,100544.25
2022-10-10T23:38:47.321Z,100548.09
2022-10-10T23:41:16.011Z,100550.50
2022-10-10T23:43:44.340Z,100548.72
2022-10-10T23:46:13.175Z,100554.09
2022-10-10T23:48:43.600Z,100557.81
2022-10-10T23:51:12.094Z,100547.50
2022-10-10T23:53:40.771Z,100552.44
2022-10-10T23:56:09.718Z,100545.25
2022-10-10T23:58:38.700Z,100553.97
